createdAt,value
2022-11-17T00:01:00.929Z,98407.22
2022-11-17T00:02:02.504Z,98406.75
2022-11-17T00:03:04.025Z,98406.75
2022-11-17T00:04:06.173Z,98411.34
2022-11-17T00:05:07.981Z,98393.72
2022-11-17T00:06:09.443Z,98389.09
2022-11-17T00:07:10.961Z,98384.16
2022-11-17T00:08:14.685Z,98381.84
2022-11-17T00:09:17.539Z,98371.00
2022-11-17T00:10:19.273Z,98362.78
2022-11-17T00:11:20.791Z,98371.16
2022-11-17T00:12:40.932Z,98367.84
2022-11-17T00:14:01.854Z,98370.84
2022-11-17T00:15:03.455Z,98369.88
2022-11-17T00:16:05.200Z,98368.88
2022-11-17T00:17:07.713Z,98370.19
2022-11-17T00:18:27.968Z,98366.09
2022-11-17T00:19:51.275Z,98364.94
2022-11-17T00:21:14.003Z,98358.66
2022-11-17T00:22:18.406Z,98365.25
2022-11-17T00:23:19.880Z,98367.72
2022-11-17T00:24:23.705Z,98365.09
2022-11-17T00:25:25.299Z,98353.88
2022-11-17T00:26:27.638Z,98361.66
2022-11-17T00:27:29.096Z,98359.16
2022-11-17T00:28:34.665Z,98346.31
2022-11-17T00:29:39.444Z,98351.09
2022-11-17T00:30:59.571Z,98345.69
2022-11-17T00:32:19.815Z,98348.47
2022-11-17T00:33:40.158Z,98345.16
2022-11-17T00:34:41.689Z,98348.13
2022-11-17T00:35:43.128Z,98348.63
2022-11-17T00:36:48.301Z,98341.38
2022-11-17T00:38:15.875Z,98326.22
2022-11-17T00:39:20.786Z,98336.75
2022-11-17T00:40:26.132Z,98336.94
2022-11-17T00:41:31.035Z,98327.38
2022-11-17T00:42:39.859Z,98324.75
2022-11-17T00:43:41.401Z,98322.47
2022-11-17T00:44:42.909Z,98319.81
2022-11-17T00:45:46.668Z,98318.16
2022-11-17T00:46:50.971Z,98326.56
2022-11-17T00:47:54.461Z,98316.03
2022-11-17T00:48:55.962Z,98319.50
2022-11-17T00:49:59.961Z,98317.19
2022-11-17T00:51:03.541Z,98300.25
2022-11-17T00:52:05.089Z,98306.84
2022-11-17T00:53:07.094Z,98310.94
2022-11-17T00:54:10.166Z,98306.50
2022-11-17T00:55:14.179Z,98313.09
2022-11-17T00:56:18.186Z,98295.34
2022-11-17T00:57:19.635Z,98311.59
2022-11-17T00:58:21.126Z,98307.00
2022-11-17T00:59:22.617Z,98307.63
2022-11-17T01:00:24.121Z,98299.44
2022-11-17T01:01:25.686Z,98301.25
2022-11-17T01:02:27.269Z,98302.72
2022-11-17T01:03:31.964Z,98294.66
2022-11-17T01:04:33.585Z,98284.44
2022-11-17T01:05:37.362Z,98279.19
2022-11-17T01:06:39.966Z,98276.06
2022-11-17T01:07:46.358Z,98289.72
2022-11-17T01:08:55.466Z,98282.50
2022-11-17T01:09:56.930Z,98282.50
2022-11-17T01:11:13.042Z,98273.59
2022-11-17T01:12:14.484Z,98273.59
2022-11-17T01:13:17.359Z,98262.25
2022-11-17T01:14:23.271Z,98263.41
2022-11-17T01:15:31.906Z,98271.94
2022-11-17T01:16:36.479Z,98270.31
2022-11-17T01:17:37.914Z,98266.84
2022-11-17T01:18:39.463Z,98269.81
2022-11-17T01:19:43.702Z,98269.97
2022-11-17T01:20:46.098Z,98268.19
2022-11-17T01:21:50.459Z,98260.78
2022-11-17T01:22:53.856Z,98272.44
2022-11-17T01:23:56.343Z,98267.00
2022-11-17T01:25:00.181Z,98255.34
2022-11-17T01:26:02.826Z,98264.53
2022-11-17T01:27:05.146Z,98263.38
2022-11-17T01:28:15.734Z,98256.00
2022-11-17T01:29:22.287Z,98248.25
2022-11-17T01:30:23.778Z,98238.69
2022-11-17T01:31:28.024Z,98242.00
2022-11-17T01:32:31.829Z,98230.97
2022-11-17T01:33:33.697Z,98225.88
2022-11-17T01:34:35.466Z,98224.38
2022-11-17T01:35:36.987Z,98221.25
2022-11-17T01:36:57.929Z,98221.72
2022-11-17T01:38:33.281Z,98218.59
2022-11-17T01:39:34.843Z,98218.75
2022-11-17T01:40:38.630Z,98226.81
2022-11-17T01:41:40.087Z,98222.53
2022-11-17T01:42:50.179Z,98226.00
2022-11-17T01:43:57.926Z,98211.06
2022-11-17T01:45:20.090Z,98214.34
2022-11-17T01:46:31.702Z,98209.72
2022-11-17T01:47:38.921Z,98215.00
2022-11-17T01:48:41.255Z,98209.56
2022-11-17T01:49:42.734Z,98199.06
2022-11-17T01:50:45.945Z,98193.94
2022-11-17T01:51:55.174Z,98188.34
2022-11-17T01:52:59.583Z,98183.91
2022-11-17T01:54:01.117Z,98175.84
2022-11-17T01:55:09.091Z,98165.97
2022-11-17T01:56:12.047Z,98172.53
2022-11-17T01:57:14.438Z,98178.66
2022-11-17T01:58:17.705Z,98175.53
2022-11-17T01:59:35.327Z,98169.13
2022-11-17T02:00:36.826Z,98158.59
2022-11-17T02:01:57.528Z,98163.16
2022-11-17T02:02:59.794Z,98155.75
2022-11-17T02:04:05.223Z,98149.84
2022-11-17T02:05:26.057Z,98153.59
2022-11-17T02:06:31.245Z,98151.28
2022-11-17T02:07:39.910Z,98150.94
2022-11-17T02:08:41.440Z,98136.28
2022-11-17T02:09:42.942Z,98140.72
2022-11-17T02:10:48.679Z,98142.06
2022-11-17T02:11:58.702Z,98130.69
2022-11-17T02:13:00.301Z,98134.81
2022-11-17T02:14:01.763Z,98133.81
2022-11-17T02:15:03.347Z,98140.94
2022-11-17T02:16:05.006Z,98155.91
2022-11-17T02:17:11.714Z,98149.66
2022-11-17T02:18:21.114Z,98145.84
2022-11-17T02:19:25.619Z,98148.81
2022-11-17T02:20:31.528Z,98130.53
2022-11-17T02:21:38.736Z,98129.03
2022-11-17T02:22:42.675Z,98123.56
2022-11-17T02:23:51.859Z,98121.59
2022-11-17T02:25:04.587Z,98119.81
2022-11-17T02:26:08.937Z,98125.06
2022-11-17T02:27:32.440Z,98113.53
2022-11-17T02:28:52.508Z,98107.94
2022-11-17T02:30:07.415Z,98113.91
2022-11-17T02:31:14.591Z,98112.25
2022-11-17T02:32:26.900Z,98102.06
2022-11-17T02:33:31.355Z,98101.84
2022-11-17T02:34:32.856Z,98101.84
2022-11-17T02:35:43.092Z,98100.91
2022-11-17T02:36:55.483Z,98103.06
2022-11-17T02:38:00.195Z,98098.75
2022-11-17T02:39:20.284Z,98092.50
2022-11-17T02:40:25.265Z,98080.63
2022-11-17T02:41:30.836Z,98079.94
2022-11-17T02:43:20.550Z,98082.41
2022-11-17T02:44:24.242Z,98087.03
2022-11-17T02:45:39.338Z,98085.75
2022-11-17T02:46:42.131Z,98080.84
2022-11-17T02:47:43.662Z,98081.31
2022-11-17T02:48:46.030Z,98085.56
2022-11-17T02:49:57.077Z,98089.66
2022-11-17T02:51:00.826Z,98090.47
2022-11-17T02:52:02.301Z,98094.59
2022-11-17T02:53:03.763Z,98092.63
2022-11-17T02:54:05.275Z,98086.34
2022-11-17T02:55:07.820Z,98079.44
2022-11-17T02:56:15.219Z,98074.84
2022-11-17T02:57:35.450Z,98072.91
2022-11-17T02:58:36.948Z,98084.97
2022-11-17T02:59:42.851Z,98079.72
2022-11-17T03:00:53.276Z,98088.31
2022-11-17T03:02:13.923Z,98074.00
2022-11-17T03:03:20.736Z,98078.44
2022-11-17T03:04:44.610Z,98090.78
2022-11-17T03:06:04.870Z,98089.28
2022-11-17T03:07:15.059Z,98092.56
2022-11-17T03:08:36.095Z,98079.56
2022-11-17T03:11:05.423Z,98086.47
2022-11-17T03:12:11.890Z,98081.25
2022-11-17T03:13:16.727Z,98089.63
2022-11-17T03:14:21.033Z,98082.59
2022-11-17T03:17:05.645Z,98097.13
2022-11-17T03:18:12.670Z,98109.47
2022-11-17T03:19:32.757Z,98088.44
2022-11-17T03:20:54.442Z,98092.03
2022-11-17T03:22:12.041Z,98079.75
2022-11-17T03:23:20.842Z,98069.88
2022-11-17T03:24:27.868Z,98072.34
2022-11-17T03:25:35.108Z,98069.56
2022-11-17T03:26:39.299Z,98073.03
2022-11-17T03:27:45.246Z,98078.13
2022-11-17T03:28:46.742Z,98081.06
2022-11-17T03:29:49.567Z,98087.47
2022-11-17T03:30:51.089Z,98080.88
2022-11-17T03:31:53.497Z,98080.72
2022-11-17T03:32:58.237Z,98071.22
2022-11-17T03:34:00.966Z,98070.53
2022-11-17T03:35:09.286Z,98080.22
2022-11-17T03:36:11.959Z,98080.06
2022-11-17T03:37:38.779Z,98094.38
2022-11-17T03:38:48.838Z,98084.66
2022-11-17T03:40:03.486Z,98092.75
2022-11-17T03:41:05.211Z,98088.13
2022-11-17T03:42:08.233Z,98086.81
2022-11-17T03:43:10.184Z,98089.09
2022-11-17T03:44:11.954Z,98086.81
2022-11-17T03:45:18.090Z,98082.03
2022-11-17T03:46:22.281Z,98077.78
2022-11-17T03:48:50.187Z,98062.66
2022-11-17T03:50:16.916Z,98061.50
2022-11-17T03:51:19.028Z,98065.06
2022-11-17T03:52:25.115Z,98069.03
2022-11-17T03:53:26.581Z,98075.75
2022-11-17T03:54:28.074Z,98063.94
2022-11-17T03:55:40.110Z,98063.63
2022-11-17T03:57:01.026Z,98065.59
2022-11-17T03:58:06.970Z,98066.22
2022-11-17T03:59:47.772Z,98061.97
2022-11-17T04:00:58.133Z,98066.88
2022-11-17T04:02:01.221Z,98065.88
2022-11-17T04:03:03.834Z,98067.34
2022-11-17T04:04:08.011Z,98064.41
2022-11-17T04:05:13.879Z,98064.59
2022-11-17T04:06:25.785Z,98063.25
2022-11-17T04:07:29.649Z,98068.84
2022-11-17T04:08:31.842Z,98062.13
2022-11-17T04:09:33.330Z,98060.00
2022-11-17T04:10:57.499Z,98062.13
2022-11-17T04:12:21.038Z,98059.66
2022-11-17T04:13:42.054Z,98065.56
2022-11-17T04:15:02.111Z,98062.25
2022-11-17T04:16:08.853Z,98056.69
2022-11-17T04:17:10.279Z,98056.69
2022-11-17T04:18:25.119Z,98057.66
2022-11-17T04:19:26.591Z,98057.31
2022-11-17T04:20:35.861Z,98052.72
2022-11-17T04:21:38.190Z,98061.44
2022-11-17T04:22:39.686Z,98060.78
2022-11-17T04:23:41.150Z,98067.06
2022-11-17T04:24:49.731Z,98064.06
2022-11-17T04:26:15.841Z,98060.47
2022-11-17T04:27:48.039Z,98064.41
2022-11-17T04:28:52.451Z,98060.31
2022-11-17T04:29:56.193Z,98054.03
2022-11-17T04:31:00.435Z,98055.19
2022-11-17T04:32:04.565Z,98056.16
2022-11-17T04:33:06.225Z,98056.69
2022-11-17T04:34:10.522Z,98056.50
2022-11-17T04:35:14.571Z,98052.91
2022-11-17T04:36:17.440Z,98064.94
2022-11-17T04:37:21.076Z,98058.66
2022-11-17T04:38:23.243Z,98046.50
2022-11-17T04:39:33.081Z,98053.41
2022-11-17T04:40:55.178Z,98045.34
2022-11-17T04:42:04.846Z,98039.09
2022-11-17T04:43:07.238Z,98035.13
2022-11-17T04:44:15.633Z,98043.03
2022-11-17T04:45:17.161Z,98040.59
2022-11-17T04:46:18.848Z,98037.44
2022-11-17T04:47:20.295Z,98041.53
2022-11-17T04:48:21.780Z,98042.88
2022-11-17T04:49:23.756Z,98033.84
2022-11-17T04:50:44.127Z,98030.72
2022-11-17T04:51:45.719Z,98030.72
2022-11-17T04:52:47.155Z,98034.81
2022-11-17T04:55:17.461Z,98022.47
2022-11-17T04:56:21.839Z,98028.75
2022-11-17T04:57:23.278Z,98024.78
2022-11-17T04:58:24.790Z,98023.63
2022-11-17T04:59:32.468Z,98031.69
2022-11-17T05:00:35.983Z,98010.81
2022-11-17T05:01:43.807Z,98031.53
2022-11-17T05:02:47.339Z,98015.25
2022-11-17T05:04:02.278Z,98016.72
2022-11-17T05:05:06.894Z,98012.63
2022-11-17T05:06:13.437Z,98019.22
2022-11-17T05:07:17.752Z,98023.34
2022-11-17T05:08:19.254Z,98014.00
2022-11-17T05:09:28.168Z,98011.88
2022-11-17T05:10:51.717Z,98023.19
2022-11-17T05:12:17.853Z,98017.47
2022-11-17T05:13:33.401Z,98021.38
2022-11-17T05:14:41.057Z,98019.72
2022-11-17T05:16:01.030Z,98011.34
2022-11-17T05:17:09.624Z,98022.38
2022-11-17T05:18:12.283Z,98018.59
2022-11-17T05:19:20.045Z,98011.88
2022-11-17T05:20:49.145Z,97995.75
2022-11-17T05:21:51.254Z,98008.91
2022-11-17T05:23:13.736Z,98020.41
2022-11-17T05:24:15.348Z,98018.75
2022-11-17T05:25:19.433Z,98010.72
2022-11-17T05:26:21.798Z,98023.69
2022-11-17T05:27:23.310Z,98024.34
2022-11-17T05:28:24.761Z,98020.41
2022-11-17T05:29:28.703Z,98019.41
2022-11-17T05:30:39.475Z,98017.25
2022-11-17T05:31:41.003Z,98022.38
2022-11-17T05:32:44.734Z,98027.13
2022-11-17T05:33:46.190Z,98019.09
2022-11-17T05:34:49.248Z,98027.63
2022-11-17T05:35:50.748Z,98029.47
2022-11-17T05:36:54.880Z,98018.75
2022-11-17T05:37:59.319Z,98008.56
2022-11-17T05:39:04.005Z,98007.59
2022-11-17T05:40:05.766Z,98008.53
2022-11-17T05:41:09.650Z,98004.94
2022-11-17T05:42:11.090Z,98004.78
2022-11-17T05:43:15.654Z,98013.16
2022-11-17T05:44:17.139Z,98007.59
2022-11-17T05:45:18.588Z,98018.09
2022-11-17T05:46:20.113Z,98017.63
2022-11-17T05:47:21.596Z,98015.50
2022-11-17T05:48:23.091Z,98027.47
2022-11-17T05:49:26.840Z,98001.81
2022-11-17T05:50:31.018Z,98011.69
2022-11-17T05:51:40.138Z,98016.31
2022-11-17T05:52:41.616Z,98004.59
2022-11-17T05:53:43.062Z,98023.19
2022-11-17T05:54:44.540Z,98002.00
2022-11-17T05:55:46.010Z,98009.38
2022-11-17T05:56:49.635Z,98010.72
2022-11-17T05:57:51.162Z,98026.00
2022-11-17T05:58:53.061Z,98013.84
2022-11-17T05:59:56.011Z,98021.06
2022-11-17T06:00:57.682Z,98021.22
2022-11-17T06:02:00.697Z,98021.41
2022-11-17T06:03:04.191Z,98010.72
2022-11-17T06:04:08.645Z,98013.84
2022-11-17T06:05:10.969Z,98015.50
2022-11-17T06:06:14.833Z,98010.88
2022-11-17T06:07:17.844Z,98011.53
2022-11-17T06:08:19.628Z,98022.38
2022-11-17T06:09:21.078Z,98008.56
2022-11-17T06:10:25.575Z,98014.81
2022-11-17T06:11:27.215Z,98018.44
2022-11-17T06:12:29.256Z,98006.09
2022-11-17T06:13:36.922Z,98017.28
2022-11-17T06:14:41.722Z,98019.44
2022-11-17T06:15:43.188Z,98012.50
2022-11-17T06:16:44.782Z,98011.69
2022-11-17T06:17:47.994Z,98014.00
2022-11-17T06:18:56.697Z,98020.56
2022-11-17T06:20:02.418Z,98009.22
2022-11-17T06:21:04.005Z,98014.81
2022-11-17T06:22:12.214Z,98007.59
2022-11-17T06:23:16.120Z,98017.63
2022-11-17T06:24:17.659Z,98021.75
2022-11-17T06:25:19.200Z,98016.63
2022-11-17T06:26:20.658Z,98008.25
2022-11-17T06:27:33.075Z,98009.41
2022-11-17T06:28:35.381Z,98001.38
2022-11-17T06:29:40.934Z,98017.81
2022-11-17T06:30:45.703Z,98019.44
2022-11-17T06:31:47.177Z,98012.88
2022-11-17T06:32:49.943Z,98022.41
2022-11-17T06:33:51.409Z,98021.59
2022-11-17T06:34:55.956Z,98019.47
2022-11-17T06:36:01.228Z,98017.81
2022-11-17T06:37:02.702Z,98021.91
2022-11-17T06:38:04.365Z,98014.22
2022-11-17T06:39:05.891Z,98012.41
2022-11-17T06:40:13.386Z,98025.38
2022-11-17T06:41:22.454Z,98014.69
2022-11-17T06:42:43.778Z,98026.69
2022-11-17T06:43:45.272Z,98024.38
2022-11-17T06:44:46.752Z,98018.97
2022-11-17T06:45:48.522Z,98027.00
2022-11-17T06:46:50.055Z,98027.00
2022-11-17T06:47:54.600Z,98023.25
2022-11-17T06:49:01.991Z,98019.28
2022-11-17T06:50:03.816Z,98019.28
2022-11-17T06:51:05.748Z,98023.75
2022-11-17T06:52:07.260Z,98019.28
2022-11-17T06:53:09.820Z,98029.16
2022-11-17T06:54:12.331Z,98023.56
2022-11-17T06:55:13.876Z,98024.06
2022-11-17T06:56:17.309Z,98028.50
2022-11-17T06:57:18.832Z,98034.56
2022-11-17T06:58:20.417Z,98029.00
2022-11-17T06:59:21.916Z,98036.56
2022-11-17T07:00:27.004Z,98033.09
2022-11-17T07:01:31.169Z,98036.72
2022-11-17T07:02:40.872Z,98033.94
2022-11-17T07:03:47.437Z,98034.25
2022-11-17T07:04:49.094Z,98038.16
2022-11-17T07:05:51.941Z,98039.00
2022-11-17T07:06:53.562Z,98035.38
2022-11-17T07:07:56.997Z,98029.66
2022-11-17T07:08:58.611Z,98030.28
2022-11-17T07:10:00.232Z,98027.66
2022-11-17T07:11:05.244Z,98026.50
2022-11-17T07:12:06.798Z,98035.19
2022-11-17T07:13:08.922Z,98031.91
2022-11-17T07:14:10.461Z,98035.19
2022-11-17T07:15:12.080Z,98032.25
2022-11-17T07:16:18.663Z,98038.34
2022-11-17T07:17:23.425Z,98042.78
2022-11-17T07:18:25.850Z,98044.91
2022-11-17T07:19:37.618Z,98029.66
2022-11-17T07:20:39.125Z,98030.75
2022-11-17T07:21:40.646Z,98045.88
2022-11-17T07:22:42.276Z,98033.06
2022-11-17T07:23:45.023Z,98032.41
2022-11-17T07:24:47.329Z,98031.59
2022-11-17T07:25:55.140Z,98048.19
2022-11-17T07:26:56.663Z,98043.09
2022-11-17T07:28:01.005Z,98040.16
2022-11-17T07:29:02.535Z,98038.81
2022-11-17T07:30:04.731Z,98041.94
2022-11-17T07:31:12.496Z,98034.53
2022-11-17T07:32:16.468Z,98041.06
2022-11-17T07:33:18.036Z,98032.88
2022-11-17T07:34:22.998Z,98042.41
2022-11-17T07:35:27.721Z,98033.69
2022-11-17T07:36:29.259Z,98045.03
2022-11-17T07:37:35.599Z,98042.72
2022-11-17T07:38:38.110Z,98046.34
2022-11-17T07:39:42.767Z,98044.06
2022-11-17T07:40:44.330Z,98041.25
2022-11-17T07:41:45.899Z,98043.88
2022-11-17T07:42:50.295Z,98046.66
2022-11-17T07:44:00.897Z,98038.47
2022-11-17T07:45:02.401Z,98051.44
2022-11-17T07:46:04.575Z,98054.22
2022-11-17T07:47:08.953Z,98051.63
2022-11-17T07:48:10.533Z,98052.56
2022-11-17T07:49:12.376Z,98057.00
2022-11-17T07:50:15.533Z,98067.22
2022-11-17T07:51:25.304Z,98065.91
2022-11-17T07:52:26.907Z,98058.50
2022-11-17T07:53:28.937Z,98062.47
2022-11-17T07:54:32.384Z,98072.00
2022-11-17T07:55:33.939Z,98064.44
2022-11-17T07:56:35.424Z,98073.50
2022-11-17T07:57:39.346Z,98068.06
2022-11-17T07:58:51.153Z,98072.97
2022-11-17T07:59:55.980Z,98060.63
2022-11-17T08:01:04.315Z,98060.34
2022-11-17T08:02:13.351Z,98058.38
2022-11-17T08:03:27.141Z,98057.53
2022-11-17T08:04:28.761Z,98054.91
2022-11-17T08:05:32.159Z,98058.56
2022-11-17T08:06:33.822Z,98065.78
2022-11-17T08:07:35.398Z,98057.88
2022-11-17T08:08:38.183Z,98055.56
2022-11-17T08:09:40.274Z,98062.31
2022-11-17T08:10:43.084Z,98071.31
2022-11-17T08:11:44.643Z,98064.59
2022-11-17T08:12:46.166Z,98075.13
2022-11-17T08:13:50.042Z,98082.22
2022-11-17T08:14:53.956Z,98065.94
2022-11-17T08:15:56.252Z,98064.59
2022-11-17T08:16:57.776Z,98070.03
2022-11-17T08:17:59.727Z,98069.19
2022-11-17T08:19:07.235Z,98067.03
2022-11-17T08:20:08.984Z,98060.28
2022-11-17T08:21:13.887Z,98057.69
2022-11-17T08:22:15.392Z,98058.69
2022-11-17T08:23:16.898Z,98066.25
2022-11-17T08:24:18.551Z,98065.25
2022-11-17T08:25:20.336Z,98069.19
2022-11-17T08:26:26.360Z,98067.03
2022-11-17T08:27:35.091Z,98071.16
2022-11-17T08:28:37.035Z,98076.56
2022-11-17T08:29:38.855Z,98069.69
2022-11-17T08:30:40.553Z,98069.69
2022-11-17T08:31:46.116Z,98071.47
2022-11-17T08:32:49.257Z,98074.44
2022-11-17T08:33:53.296Z,98072.00
2022-11-17T08:34:54.948Z,98063.91
2022-11-17T08:35:56.965Z,98066.41
2022-11-17T08:36:58.450Z,98068.56
2022-11-17T08:38:00.009Z,98076.94
2022-11-17T08:39:01.520Z,98072.16
2022-11-17T08:40:04.609Z,98065.56
2022-11-17T08:41:06.676Z,98074.91
2022-11-17T08:42:08.282Z,98073.13
2022-11-17T08:43:09.819Z,98055.19
2022-11-17T08:44:11.292Z,98071.28
2022-11-17T08:45:13.062Z,98066.03
2022-11-17T08:46:17.176Z,98055.00
2022-11-17T08:47:24.734Z,98062.75
2022-11-17T08:48:28.790Z,98055.00
2022-11-17T08:49:30.381Z,98060.44
2022-11-17T08:50:32.411Z,98068.97
2022-11-17T08:51:33.994Z,98068.81
2022-11-17T08:52:35.486Z,98067.19
2022-11-17T08:53:42.379Z,98076.88
2022-11-17T08:54:47.523Z,98078.66
2022-11-17T08:55:52.291Z,98080.81
2022-11-17T08:56:57.494Z,98084.09
2022-11-17T08:57:59.175Z,98086.38
2022-11-17T08:59:03.549Z,98076.16
2022-11-17T09:00:08.003Z,98075.78
2022-11-17T09:01:13.006Z,98076.91
2022-11-17T09:02:14.549Z,98071.75
2022-11-17T09:03:16.116Z,98074.66
2022-11-17T09:04:20.581Z,98083.53
2022-11-17T09:05:23.400Z,98070.78
2022-11-17T09:06:24.997Z,98076.91
2022-11-17T09:07:30.567Z,98068.88
2022-11-17T09:08:50.427Z,98079.28
2022-11-17T09:09:52.120Z,98076.66
2022-11-17T09:10:53.872Z,98072.97
2022-11-17T09:11:58.220Z,98076.94
2022-11-17T09:12:59.772Z,98089.28
2022-11-17T09:14:01.259Z,98097.22
2022-11-17T09:15:04.910Z,98096.34
2022-11-17T09:16:12.112Z,98097.84
2022-11-17T09:17:13.687Z,98101.28
2022-11-17T09:18:15.157Z,98099.66
2022-11-17T09:19:21.294Z,98100.84
2022-11-17T09:20:22.892Z,98109.94
2022-11-17T09:21:24.424Z,98104.69
2022-11-17T09:22:25.903Z,98112.06
2022-11-17T09:23:28.076Z,98111.53
2022-11-17T09:24:29.551Z,98117.81
2022-11-17T09:25:31.432Z,98130.38
2022-11-17T09:26:42.926Z,98115.69
2022-11-17T09:27:47.096Z,98126.88
2022-11-17T09:28:49.088Z,98123.06
2022-11-17T09:29:50.615Z,98136.75
2022-11-17T09:30:55.029Z,98130.94
2022-11-17T09:32:02.692Z,98141.13
2022-11-17T09:33:04.266Z,98131.06
2022-11-17T09:34:06.272Z,98127.94
2022-11-17T09:35:09.322Z,98138.47
2022-11-17T09:36:11.572Z,98129.84
2022-11-17T09:37:15.834Z,98136.41
2022-11-17T09:38:17.364Z,98127.34
2022-11-17T09:39:21.849Z,98128.97
2022-11-17T09:40:25.513Z,98135.75
2022-11-17T09:41:40.879Z,98123.38
2022-11-17T09:42:42.372Z,98130.25
2022-11-17T09:43:45.048Z,98105.56
2022-11-17T09:45:05.121Z,98138.31
2022-11-17T09:46:13.359Z,98136.34
2022-11-17T09:48:02.388Z,98136.34
2022-11-17T09:49:32.700Z,98133.53
2022-11-17T09:50:37.771Z,98133.53
2022-11-17T09:51:45.101Z,98135.88
2022-11-17T09:52:55.337Z,98147.19
2022-11-17T09:54:03.715Z,98140.25
2022-11-17T09:55:07.703Z,98138.03
2022-11-17T09:56:09.434Z,98139.16
2022-11-17T09:57:36.959Z,98140.44
2022-11-17T09:58:47.801Z,98131.09
2022-11-17T09:59:49.933Z,98134.38
2022-11-17T10:00:52.968Z,98139.28
2022-11-17T10:01:56.762Z,98127.25
2022-11-17T10:03:04.394Z,98139.22
2022-11-17T10:04:09.300Z,98145.69
2022-11-17T10:05:20.956Z,98132.44
2022-11-17T10:06:40.096Z,98133.13
2022-11-17T10:07:46.317Z,98137.59
2022-11-17T10:09:05.938Z,98141.47
2022-11-17T10:10:12.140Z,98138.69
2022-11-17T10:11:33.258Z,98139.28
2022-11-17T10:12:44.708Z,98130.66
2022-11-17T10:13:49.588Z,98140.19
2022-11-17T10:14:51.064Z,98143.31
2022-11-17T10:15:56.132Z,98133.09
2022-11-17T10:16:59.455Z,98142.25
2022-11-17T10:18:01.011Z,98150.91
2022-11-17T10:19:22.072Z,98140.97
2022-11-17T10:20:27.698Z,98151.97
2022-11-17T10:21:30.363Z,98147.16
2022-11-17T10:22:35.042Z,98138.44
2022-11-17T10:23:47.498Z,98139.25
2022-11-17T10:24:55.578Z,98141.47
2022-11-17T10:25:57.648Z,98150.03
2022-11-17T10:26:59.164Z,98141.13
2022-11-17T10:28:02.532Z,98138.78
2022-11-17T10:29:14.107Z,98149.34
2022-11-17T10:30:23.525Z,98148.53
2022-11-17T10:31:25.035Z,98147.72
2022-11-17T10:32:30.647Z,98152.16
2022-11-17T10:33:39.510Z,98151.00
2022-11-17T10:34:41.874Z,98152.28
2022-11-17T10:35:45.876Z,98151.94
2022-11-17T10:36:47.984Z,98155.91
2022-11-17T10:38:08.989Z,98147.13
2022-11-17T10:39:17.468Z,98152.63
2022-11-17T10:40:25.675Z,98149.06
2022-11-17T10:41:41.263Z,98151.41
2022-11-17T10:42:44.276Z,98154.69
2022-11-17T10:43:57.264Z,98149.06
2022-11-17T10:44:59.328Z,98164.75
2022-11-17T10:46:03.691Z,98167.44
2022-11-17T10:47:07.262Z,98165.63
2022-11-17T10:48:10.635Z,98164.16
2022-11-17T10:49:30.127Z,98166.59
2022-11-17T10:50:31.686Z,98170.59
2022-11-17T10:51:33.462Z,98158.78
2022-11-17T10:52:35.014Z,98161.13
2022-11-17T10:53:43.506Z,98152.34
2022-11-17T10:54:49.784Z,98159.00
2022-11-17T10:55:55.236Z,98159.19
2022-11-17T10:56:57.749Z,98147.97
2022-11-17T10:58:07.987Z,98150.47
2022-11-17T10:59:09.520Z,98156.75
2022-11-17T11:00:30.496Z,98148.34
2022-11-17T11:01:33.059Z,98158.25
2022-11-17T11:02:35.304Z,98146.91
2022-11-17T11:03:39.269Z,98146.91
2022-11-17T11:04:41.251Z,98152.66
2022-11-17T11:05:56.412Z,98145.88
2022-11-17T11:07:08.077Z,98144.03
2022-11-17T11:08:25.907Z,98139.50
2022-11-17T11:09:34.550Z,98139.75
2022-11-17T11:10:36.032Z,98141.00
2022-11-17T11:11:41.089Z,98143.34
2022-11-17T11:13:01.372Z,98142.78
2022-11-17T11:14:21.180Z,98143.63
2022-11-17T11:15:23.876Z,98143.03
2022-11-17T11:16:34.191Z,98141.66
2022-11-17T11:17:35.707Z,98136.84
2022-11-17T11:18:37.344Z,98151.47
2022-11-17T11:19:39.225Z,98142.84
2022-11-17T11:21:01.306Z,98151.97
2022-11-17T11:22:21.936Z,98150.22
2022-11-17T11:23:30.623Z,98159.56
2022-11-17T11:24:56.288Z,98151.38
2022-11-17T11:26:02.703Z,98152.56
2022-11-17T11:27:19.572Z,98154.56
2022-11-17T11:28:59.802Z,98155.25
2022-11-17T11:30:02.389Z,98161.19
2022-11-17T11:31:19.096Z,98169.41
2022-11-17T11:32:39.040Z,98166.34
2022-11-17T11:34:16.127Z,98165.38
2022-11-17T11:35:26.616Z,98158.59
2022-11-17T11:36:37.040Z,98164.31
2022-11-17T11:37:44.140Z,98166.41
2022-11-17T11:38:53.267Z,98176.38
2022-11-17T11:39:56.353Z,98163.03
2022-11-17T11:41:17.431Z,98176.19
2022-11-17T11:42:40.637Z,98164.94
2022-11-17T11:43:42.100Z,98167.25
2022-11-17T11:44:43.545Z,98159.31
2022-11-17T11:45:45.046Z,98154.84
2022-11-17T11:46:52.504Z,98155.53
2022-11-17T11:47:53.957Z,98166.34
2022-11-17T11:48:55.690Z,98160.25
2022-11-17T11:50:03.928Z,98161.31
2022-11-17T11:51:06.005Z,98163.91
2022-11-17T11:53:35.344Z,98170.69
2022-11-17T11:54:50.532Z,98174.69
2022-11-17T11:56:18.529Z,98175.41
2022-11-17T11:57:21.028Z,98172.59
2022-11-17T11:58:23.323Z,98179.72
2022-11-17T11:59:38.814Z,98185.00
2022-11-17T12:00:43.252Z,98178.22
2022-11-17T12:02:03.642Z,98175.03
2022-11-17T12:03:09.425Z,98172.00
2022-11-17T12:04:11.173Z,98171.28
2022-11-17T12:05:13.268Z,98167.31
2022-11-17T12:06:41.824Z,98181.38
2022-11-17T12:07:55.693Z,98186.50
2022-11-17T12:09:14.695Z,98182.06
2022-11-17T12:10:31.220Z,98185.59
2022-11-17T12:11:51.463Z,98180.78
2022-11-17T12:12:52.924Z,98180.78
2022-11-17T12:13:54.667Z,98170.72
2022-11-17T12:15:18.031Z,98179.97
2022-11-17T12:16:19.891Z,98192.25
2022-11-17T12:17:25.471Z,98194.94
2022-11-17T12:18:45.048Z,98189.31
2022-11-17T12:19:53.420Z,98179.94
2022-11-17T12:20:56.169Z,98187.19
2022-11-17T12:21:57.867Z,98185.56
2022-11-17T12:23:08.304Z,98191.88
2022-11-17T12:24:20.143Z,98203.84
2022-11-17T12:25:28.057Z,98212.28
2022-11-17T12:26:30.130Z,98194.59
2022-11-17T12:27:38.411Z,98187.66
2022-11-17T12:28:40.498Z,98185.34
2022-11-17T12:29:45.478Z,98190.00
2022-11-17T12:30:47.123Z,98188.38
2022-11-17T12:31:49.149Z,98195.88
2022-11-17T12:32:51.186Z,98204.75
2022-11-17T12:33:52.713Z,98207.56
2022-11-17T12:35:13.106Z,98203.94
2022-11-17T12:36:31.186Z,98193.06
2022-11-17T12:37:33.189Z,98191.06
2022-11-17T12:38:38.248Z,98187.91
2022-11-17T12:39:55.618Z,98186.28
2022-11-17T12:40:57.527Z,98181.81
2022-11-17T12:42:06.383Z,98187.91
2022-11-17T12:43:16.905Z,98177.13
2022-11-17T12:44:33.985Z,98177.38
2022-11-17T12:45:52.820Z,98168.47
2022-11-17T12:46:55.426Z,98174.56
2022-11-17T12:48:26.435Z,98175.94
2022-11-17T12:49:26.973Z,98184.84
2022-11-17T12:50:39.076Z,98177.59
2022-11-17T12:51:42.950Z,98183.69
2022-11-17T12:52:44.620Z,98169.03
2022-11-17T12:53:54.256Z,98175.34
2022-11-17T12:55:16.014Z,98166.81
2022-11-17T12:56:26.735Z,98173.59
2022-11-17T12:57:29.061Z,98170.09
2022-11-17T12:58:34.078Z,98171.38
2022-11-17T12:59:35.592Z,98175.72
2022-11-17T13:00:48.253Z,98174.53
2022-11-17T13:02:08.359Z,98168.00
2022-11-17T13:03:15.299Z,98165.50
2022-11-17T13:04:17.838Z,98171.13
2022-11-17T13:05:20.088Z,98166.81
2022-11-17T13:06:35.445Z,98160.50
2022-11-17T13:07:38.141Z,98165.41
2022-11-17T13:08:39.808Z,98155.00
2022-11-17T13:09:41.543Z,98172.44